Main page
METAR-TAF:

Airports :

Buenos Aires, Argentina

Aeroparque Jorge Newbery

latitude: 34-34S, longitude: 058-25W, elevation: 6 m

Current weather observation

The report was made 12 minutes ago, at 12:00 UTC
Wind 7 kt from the East/Southeast
Temperature 15°C
Humidity 67%
Pressure 1025 hPa
Visibility 10 km or more
no clouds below 1500 m and no cumulonimbus

METAR: SABE 251200Z 11007KT CAVOK 15/09 Q1025

Time: 09:12 (12:12 UTC)

Forecast

The report was made 1 hour and 12 minutes ago, at 11:00 UTC
Forecast valid from 25 at 12 UTC to 26 at 12 UTC
Wind 5 kt from the South/Southeast
Visibility 10 km or more
no clouds below 1500 m and no cumulonimbus
Becoming
from 25 at 16 UTC to 25 at 17 UTC
Wind 10 kt from the East/Southeast
Becoming
from 25 at 23 UTC to 26 at 02 UTC
Wind 5 kt from the North/Northeast

TAF: SABE 251100Z 2512/2612 16005KT CAVOK TX16/2518Z TN11/2512Z BECMG 2516/2517 11010KT BECMG 2523/2602 02005KT

METAR-TAF

Weather observations and forecasts of more than 4000 airports (METAR and TAF reports).

The available stations are represented by yellow and red dots on the map.

Hover mouse over dot to see the name of the station.

Then click to see weather observations and forecasts.

To change the map : click on the green buttons with a black cross to zoom in, on the green button with a dash to zoom out, or on the green arrows for adjacent maps.


METAR-TAF: